createdAt,value
2018-04-13T00:01:54.524Z,14.73
2018-04-13T00:04:22.686Z,15.73
2018-04-13T00:06:51.605Z,15.07
2018-04-13T00:09:20.524Z,15.23
2018-04-13T00:11:48.605Z,14.87
2018-04-13T00:14:16.686Z,16.90
2018-04-13T00:16:44.791Z,17.37
2018-04-13T00:19:12.868Z,16.67
2018-04-13T00:21:40.963Z,16.03
2018-04-13T00:24:09.151Z,15.97
2018-04-13T00:26:37.230Z,16.97
2018-04-13T00:29:05.375Z,17.80
2018-04-13T00:31:33.480Z,17.80
2018-04-13T00:34:01.605Z,18.03
2018-04-13T00:36:29.723Z,17.53
2018-04-13T00:38:57.852Z,19.07
2018-04-13T00:41:25.963Z,18.37
2018-04-13T00:43:54.112Z,18.93
2018-04-13T00:46:22.228Z,18.90
2018-04-13T00:48:50.383Z,17.90
2018-04-13T00:51:18.501Z,19.83
2018-04-13T00:53:46.623Z,21.20
2018-04-13T00:56:15.597Z,18.93
2018-04-13T00:58:43.737Z,17.17
2018-04-13T01:01:12.625Z,19.30
2018-04-13T01:03:41.597Z,18.10
2018-04-13T01:06:10.294Z,17.73
2018-04-13T01:08:38.397Z,17.90
2018-04-13T01:11:06.535Z,18.57
2018-04-13T01:13:34.654Z,18.10
2018-04-13T01:16:02.797Z,18.97
2018-04-13T01:18:30.934Z,18.90
2018-04-13T01:20:59.034Z,20.10
2018-04-13T01:23:28.907Z,21.60
2018-04-13T01:25:56.976Z,22.87
2018-04-13T01:28:25.093Z,22.03
2018-04-13T01:30:53.212Z,19.37
2018-04-13T01:33:21.397Z,18.33
2018-04-13T01:35:49.492Z,17.33
2018-04-13T01:38:18.399Z,15.93
2018-04-13T01:40:46.493Z,16.13
2018-04-13T01:43:14.636Z,17.27
2018-04-13T01:45:42.790Z,17.10
2018-04-13T01:48:10.932Z,16.47
2018-04-13T01:50:39.775Z,16.87
2018-04-13T01:53:07.872Z,17.87
2018-04-13T01:55:35.977Z,17.40
2018-04-13T01:58:04.096Z,18.30
2018-04-13T02:00:33.052Z,17.60
2018-04-13T02:03:01.158Z,17.80
2018-04-13T02:05:29.272Z,17.33
2018-04-13T02:07:58.151Z,18.23
2018-04-13T02:10:26.244Z,18.30
2018-04-13T02:12:54.344Z,18.90
2018-04-13T02:15:23.239Z,18.00
2018-04-13T02:17:52.102Z,18.67
2018-04-13T02:20:20.231Z,18.23
2018-04-13T02:22:49.099Z,16.27
2018-04-13T02:25:17.191Z,17.03
2018-04-13T02:27:45.348Z,16.63
2018-04-13T02:30:13.495Z,17.60
2018-04-13T02:32:42.367Z,17.60
2018-04-13T02:35:10.515Z,17.93
2018-04-13T02:37:38.630Z,18.87
2018-04-13T02:40:06.753Z,18.27
2018-04-13T02:42:35.624Z,19.07
2018-04-13T02:45:03.746Z,20.03
2018-04-13T02:47:32.671Z,18.70
2018-04-13T02:50:00.748Z,18.10
2018-04-13T02:52:28.860Z,17.03
2018-04-13T02:54:56.955Z,16.63
2018-04-13T02:57:25.077Z,15.30
2018-04-13T02:59:54.052Z,16.10
2018-04-13T03:02:22.137Z,16.93
2018-04-13T03:04:52.821Z,15.03
2018-04-13T03:07:20.872Z,14.77
2018-04-13T03:09:49.043Z,16.57
2018-04-13T03:12:17.149Z,15.63
2018-04-13T03:14:45.234Z,18.70
2018-04-13T03:17:13.332Z,18.70
2018-04-13T03:19:42.190Z,16.97
2018-04-13T03:22:10.289Z,17.90
2018-04-13T03:24:38.452Z,16.30
2018-04-13T03:27:06.597Z,17.67
2018-04-13T03:29:35.482Z,17.30
2018-04-13T03:32:03.583Z,17.47
2018-04-13T03:34:32.449Z,17.37
2018-04-13T03:37:00.567Z,16.97
2018-04-13T03:39:28.640Z,16.73
2018-04-13T03:41:56.775Z,17.13
2018-04-13T03:44:24.912Z,17.20
2018-04-13T03:46:53.814Z,17.83
2018-04-13T03:49:21.909Z,16.87
2018-04-13T03:51:50.977Z,16.60
2018-04-13T03:54:19.076Z,19.33
2018-04-13T03:56:47.169Z,18.73
2018-04-13T03:59:15.422Z,16.93
2018-04-13T04:01:43.540Z,17.53
2018-04-13T04:04:11.636Z,18.77
2018-04-13T04:06:40.552Z,19.47
2018-04-13T04:09:09.435Z,19.33
2018-04-13T04:11:37.698Z,19.33
2018-04-13T04:14:05.797Z,21.23
2018-04-13T04:16:33.894Z,23.23
2018-04-13T04:19:02.048Z,21.10
2018-04-13T04:21:42.128Z,21.83
2018-04-13T04:24:22.069Z,19.73
2018-04-13T04:26:50.229Z,19.77
2018-04-13T04:29:18.402Z,18.00
2018-04-13T04:31:46.519Z,18.30
2018-04-13T04:34:14.619Z,18.67
2018-04-13T04:36:42.772Z,17.80
2018-04-13T04:39:11.604Z,18.40
2018-04-13T04:41:39.763Z,18.17
2018-04-13T04:44:07.887Z,17.23
2018-04-13T04:46:35.957Z,17.47
2018-04-13T04:49:04.071Z,20.57
2018-04-13T04:51:32.163Z,18.33
2018-04-13T04:54:00.307Z,17.73
2018-04-13T04:56:28.517Z,19.10
2018-04-13T04:58:56.721Z,16.97
2018-04-13T05:01:24.846Z,17.43
2018-04-13T05:03:53.037Z,20.27
2018-04-13T05:06:21.935Z,18.13
2018-04-13T05:08:50.040Z,18.50
2018-04-13T05:11:18.126Z,16.83
2018-04-13T05:13:46.228Z,17.97
2018-04-13T05:16:14.319Z,17.83
2018-04-13T05:18:42.421Z,17.97
2018-04-13T05:21:10.596Z,17.60
2018-04-13T05:23:38.731Z,16.90
2018-04-13T05:26:07.197Z,17.43
2018-04-13T05:28:35.329Z,16.30
2018-04-13T05:31:03.434Z,17.57
2018-04-13T05:33:31.618Z,17.27
2018-04-13T05:35:59.827Z,17.13
2018-04-13T05:38:28.054Z,17.77
2018-04-13T05:40:56.916Z,19.23
2018-04-13T05:43:25.016Z,17.90
2018-04-13T05:45:53.106Z,18.27
2018-04-13T05:48:21.248Z,17.03
2018-04-13T05:50:49.337Z,17.17
2018-04-13T05:53:17.448Z,17.27
2018-04-13T05:55:45.591Z,15.53
2018-04-13T05:58:13.720Z,17.60
2018-04-13T06:00:41.833Z,17.20
2018-04-13T06:03:09.993Z,17.87
2018-04-13T06:05:38.125Z,16.13
2018-04-13T06:08:06.222Z,16.17
2018-04-13T06:10:34.288Z,18.10
2018-04-13T06:13:02.442Z,17.33
2018-04-13T06:15:30.539Z,16.53
2018-04-13T06:17:59.399Z,17.13
2018-04-13T06:20:27.528Z,16.33
2018-04-13T06:22:56.422Z,15.77
2018-04-13T06:25:24.529Z,15.53
2018-04-13T06:27:52.672Z,16.37
2018-04-13T06:30:20.730Z,15.73
2018-04-13T06:32:48.836Z,16.50
2018-04-13T06:35:16.961Z,16.57
2018-04-13T06:37:45.833Z,15.73
2018-04-13T06:40:13.969Z,16.20
2018-04-13T06:42:42.080Z,16.27
2018-04-13T06:45:10.256Z,16.50
2018-04-13T06:47:39.284Z,14.93
2018-04-13T06:50:07.452Z,15.17
2018-04-13T06:52:35.561Z,16.23
2018-04-13T06:55:03.728Z,15.53
2018-04-13T06:57:31.931Z,14.97
2018-04-13T07:00:00.035Z,14.33
2018-04-13T07:02:28.199Z,15.23
2018-04-13T07:04:56.305Z,14.50
2018-04-13T07:07:24.412Z,13.97
2018-04-13T07:09:53.343Z,14.77
2018-04-13T07:12:21.461Z,13.27
2018-04-13T07:14:49.595Z,12.87
2018-04-13T07:17:17.727Z,14.33
2018-04-13T07:19:45.875Z,13.63
2018-04-13T07:22:14.003Z,13.53
2018-04-13T07:24:42.104Z,13.07
2018-04-13T07:27:10.230Z,12.73
2018-04-13T07:29:38.357Z,13.17
2018-04-13T07:32:06.501Z,12.50
2018-04-13T07:34:34.615Z,13.00
2018-04-13T07:37:02.749Z,13.23
2018-04-13T07:39:31.629Z,13.43
2018-04-13T07:41:59.792Z,12.23
2018-04-13T07:44:27.996Z,12.80
2018-04-13T07:46:56.130Z,12.63
2018-04-13T07:49:24.260Z,12.73
2018-04-13T07:51:52.384Z,11.70
2018-04-13T07:54:21.264Z,11.17
2018-04-13T07:56:50.145Z,9.57
2018-04-13T07:59:18.280Z,9.30
2018-04-13T08:01:46.387Z,8.20
2018-04-13T08:04:14.480Z,8.00
2018-04-13T08:06:42.613Z,7.40
2018-04-13T08:09:10.710Z,8.20
2018-04-13T08:11:39.623Z,7.77
2018-04-13T08:14:08.487Z,8.53
2018-04-13T08:16:36.695Z,8.50
2018-04-13T08:19:04.779Z,7.97
2018-04-13T08:21:32.865Z,8.57
2018-04-13T08:24:01.745Z,8.10
2018-04-13T08:26:29.853Z,8.30
2018-04-13T08:28:57.951Z,8.03
2018-04-13T08:31:26.104Z,6.87
2018-04-13T08:33:54.209Z,7.33
2018-04-13T08:36:22.307Z,7.13
2018-04-13T08:38:50.407Z,6.70
2018-04-13T08:41:18.543Z,6.97
2018-04-13T08:43:46.696Z,7.00
2018-04-13T08:46:14.789Z,6.80
2018-04-13T08:48:42.982Z,7.53
2018-04-13T08:51:10.978Z,6.40
2018-04-13T08:53:39.092Z,6.70
2018-04-13T08:56:07.183Z,6.33
2018-04-13T08:58:36.108Z,6.60
2018-04-13T09:01:04.250Z,6.30
2018-04-13T09:03:32.331Z,5.90
2018-04-13T09:06:00.444Z,5.70
2018-04-13T09:08:29.325Z,5.77
2018-04-13T09:10:57.423Z,5.37
2018-04-13T09:13:27.114Z,4.43
2018-04-13T09:15:55.192Z,4.67
2018-04-13T09:18:23.283Z,4.27
2018-04-13T09:20:51.500Z,4.03
2018-04-13T09:23:19.524Z,4.10
2018-04-13T09:25:47.696Z,4.10
2018-04-13T09:28:15.819Z,3.90
2018-04-13T09:30:43.977Z,3.50
2018-04-13T09:33:12.062Z,3.60
2018-04-13T09:35:40.153Z,3.73
2018-04-13T09:38:08.321Z,4.13
2018-04-13T09:40:37.273Z,3.50
2018-04-13T09:43:05.416Z,3.53
2018-04-13T09:45:33.586Z,3.30
2018-04-13T09:48:01.668Z,3.70
2018-04-13T09:50:30.851Z,3.30
2018-04-13T09:52:59.015Z,4.07
2018-04-13T09:55:27.178Z,3.63
2018-04-13T09:57:55.349Z,3.80
2018-04-13T10:00:30.121Z,3.80
2018-04-13T10:03:03.243Z,3.60
2018-04-13T10:05:31.381Z,4.47
2018-04-13T10:07:59.506Z,4.90
2018-04-13T10:10:27.598Z,5.77
2018-04-13T10:12:55.686Z,7.10
2018-04-13T10:15:23.777Z,6.00
2018-04-13T10:17:51.864Z,6.70
2018-04-13T10:20:20.034Z,6.60
2018-04-13T10:22:48.163Z,6.43
2018-04-13T10:25:17.025Z,6.67
2018-04-13T10:27:45.114Z,6.47
2018-04-13T10:30:13.250Z,5.73
2018-04-13T10:32:41.448Z,6.67
2018-04-13T10:35:09.546Z,7.67
2018-04-13T10:37:37.623Z,7.13
2018-04-13T10:40:05.716Z,8.30
2018-04-13T10:42:33.804Z,8.43
2018-04-13T10:45:02.020Z,7.30
2018-04-13T10:47:30.146Z,7.97
2018-04-13T10:49:58.227Z,8.20
2018-04-13T10:52:27.192Z,10.47
2018-04-13T10:54:55.306Z,9.67
2018-04-13T10:57:24.162Z,9.03
2018-04-13T10:59:52.296Z,9.57
2018-04-13T11:02:21.167Z,10.60
2018-04-13T11:04:49.248Z,9.27
2018-04-13T11:07:17.362Z,8.57
2018-04-13T11:09:46.255Z,8.07
2018-04-13T11:12:14.345Z,7.17
2018-04-13T11:14:43.264Z,7.40
2018-04-13T11:17:12.172Z,7.47
2018-04-13T11:19:40.251Z,6.63
2018-04-13T11:22:08.400Z,6.37
2018-04-13T11:24:36.499Z,5.70
2018-04-13T11:27:04.678Z,4.50
2018-04-13T11:29:32.856Z,3.93
2018-04-13T11:32:01.017Z,3.77
2018-04-13T11:34:29.099Z,3.80
2018-04-13T11:36:57.287Z,3.37
2018-04-13T11:39:25.399Z,3.27
2018-04-13T11:41:53.523Z,2.73
2018-04-13T11:44:22.400Z,2.23
2018-04-13T11:46:52.097Z,2.20
2018-04-13T11:49:20.191Z,2.40
2018-04-13T11:51:48.324Z,2.50
2018-04-13T11:54:16.375Z,2.30
2018-04-13T11:56:44.515Z,2.43
2018-04-13T11:59:12.665Z,2.50
2018-04-13T12:01:41.571Z,2.80
2018-04-13T12:04:10.456Z,2.53
2018-04-13T12:06:39.305Z,3.40
2018-04-13T12:09:07.428Z,3.07
2018-04-13T12:11:35.584Z,3.23
2018-04-13T12:14:03.698Z,3.73
2018-04-13T12:16:31.829Z,4.40
2018-04-13T12:18:59.944Z,3.57
2018-04-13T12:21:28.058Z,3.50
2018-04-13T12:23:56.151Z,5.50
2018-04-13T12:26:24.407Z,3.63
2018-04-13T12:28:52.608Z,3.23
2018-04-13T12:31:20.805Z,4.03
2018-04-13T12:33:49.002Z,3.70
2018-04-13T12:36:17.109Z,3.83
2018-04-13T12:38:45.996Z,3.93
2018-04-13T12:41:14.886Z,4.33
2018-04-13T12:43:43.019Z,4.20
2018-04-13T12:46:11.141Z,4.63
2018-04-13T12:48:39.260Z,4.07
2018-04-13T12:51:08.117Z,4.53
2018-04-13T12:53:36.268Z,5.43
2018-04-13T12:56:04.406Z,4.60
2018-04-13T12:58:32.475Z,5.43
2018-04-13T13:01:00.593Z,6.20
2018-04-13T13:03:28.695Z,5.73
2018-04-13T13:05:56.829Z,6.00
2018-04-13T13:08:24.967Z,5.53
2018-04-13T13:10:53.063Z,5.53
2018-04-13T13:13:21.146Z,6.10
2018-04-13T13:15:49.256Z,5.30
2018-04-13T13:18:17.424Z,6.00
2018-04-13T13:20:45.526Z,6.20
2018-04-13T13:23:13.626Z,7.13
2018-04-13T13:25:41.751Z,5.80
2018-04-13T13:28:10.666Z,5.80
2018-04-13T13:30:39.524Z,6.40
2018-04-13T13:33:07.620Z,6.23
2018-04-13T13:35:35.728Z,6.13
2018-04-13T13:38:03.820Z,7.87
2018-04-13T13:40:32.660Z,6.70
2018-04-13T13:43:00.807Z,6.10
2018-04-13T13:45:29.700Z,5.03
2018-04-13T13:47:57.781Z,5.43
2018-04-13T13:50:25.899Z,4.50
2018-04-13T13:52:54.023Z,3.93
2018-04-13T13:55:22.161Z,4.17
2018-04-13T13:57:51.026Z,3.60
2018-04-13T14:00:19.176Z,3.50
2018-04-13T14:02:47.260Z,4.00
2018-04-13T14:05:15.392Z,4.50
2018-04-13T14:07:43.486Z,4.10
2018-04-13T14:10:11.600Z,4.50
2018-04-13T14:12:39.849Z,4.53
2018-04-13T14:15:07.930Z,3.20
2018-04-13T14:17:36.028Z,3.77
2018-04-13T14:20:04.100Z,3.67
2018-04-13T14:22:32.205Z,3.93
2018-04-13T14:25:01.080Z,4.07
2018-04-13T14:27:29.174Z,3.23
2018-04-13T14:29:57.412Z,3.60
2018-04-13T14:32:25.493Z,3.27
2018-04-13T14:34:53.684Z,3.80
2018-04-13T14:37:21.778Z,5.50
2018-04-13T14:39:49.917Z,3.60
2018-04-13T14:42:18.767Z,3.67
2018-04-13T14:44:46.988Z,3.40
2018-04-13T14:47:15.083Z,3.13
2018-04-13T14:49:43.981Z,3.10
2018-04-13T14:52:12.125Z,3.40
2018-04-13T14:54:40.392Z,4.00
2018-04-13T14:57:08.546Z,3.37
2018-04-13T14:59:36.724Z,3.53
2018-04-13T15:02:04.819Z,3.80
2018-04-13T15:04:32.928Z,4.20
2018-04-13T15:07:01.911Z,4.33
2018-04-13T15:09:30.018Z,5.10
2018-04-13T15:11:58.884Z,4.30
2018-04-13T15:14:27.016Z,5.17
2018-04-13T15:16:55.160Z,4.17
2018-04-13T15:19:23.276Z,4.87
2018-04-13T15:21:52.176Z,4.03
2018-04-13T15:24:21.030Z,4.50
2018-04-13T15:26:49.146Z,5.20
2018-04-13T15:29:17.239Z,4.67
2018-04-13T15:31:46.131Z,4.50
2018-04-13T15:34:14.227Z,5.03
2018-04-13T15:36:43.092Z,4.40
2018-04-13T15:39:11.183Z,4.50
2018-04-13T15:41:39.277Z,4.00
2018-04-13T15:44:07.349Z,5.00
2018-04-13T15:46:35.486Z,8.00
2018-04-13T15:49:03.617Z,5.17
2018-04-13T15:51:31.786Z,4.13
2018-04-13T15:54:00.586Z,4.47
2018-04-13T15:56:28.680Z,4.27
2018-04-13T15:58:56.770Z,4.57
2018-04-13T16:01:24.879Z,4.63
2018-04-13T16:03:52.996Z,5.83
2018-04-13T16:06:21.146Z,4.23
2018-04-13T16:08:49.401Z,4.50
2018-04-13T16:11:17.561Z,3.87
2018-04-13T16:13:45.687Z,5.10
2018-04-13T16:16:13.808Z,4.57
2018-04-13T16:18:42.695Z,4.50
2018-04-13T16:21:11.544Z,3.60
2018-04-13T16:23:39.632Z,4.00
2018-04-13T16:26:07.763Z,3.20
2018-04-13T16:28:35.849Z,3.67
2018-04-13T16:31:05.425Z,3.30
2018-04-13T16:33:33.543Z,3.57
2018-04-13T16:36:01.674Z,3.83
2018-04-13T16:38:29.835Z,4.43
2018-04-13T16:40:57.996Z,4.33
2018-04-13T16:43:26.115Z,4.00
2018-04-13T16:45:55.053Z,4.30
2018-04-13T16:48:23.176Z,5.03
2018-04-13T16:50:51.259Z,4.47
2018-04-13T16:53:19.384Z,3.90
2018-04-13T16:55:47.540Z,4.80
2018-04-13T16:58:15.697Z,5.93
2018-04-13T17:00:44.040Z,6.00
2018-04-13T17:03:12.909Z,6.07
2018-04-13T17:05:41.008Z,7.03
2018-04-13T17:08:09.112Z,4.60
2018-04-13T17:10:37.263Z,4.80
2018-04-13T17:13:05.341Z,3.80
2018-04-13T17:15:33.441Z,4.30
2018-04-13T17:18:01.532Z,4.33
2018-04-13T17:20:29.638Z,4.37
2018-04-13T17:22:58.664Z,5.67
2018-04-13T17:25:26.746Z,4.60
2018-04-13T17:27:54.859Z,4.77
2018-04-13T17:30:24.294Z,4.97
2018-04-13T17:32:53.737Z,5.73
2018-04-13T17:35:23.078Z,4.90
2018-04-13T17:37:52.461Z,4.90
2018-04-13T17:40:21.810Z,5.27
2018-04-13T17:42:51.221Z,4.60
2018-04-13T17:45:20.589Z,5.03
2018-04-13T17:47:49.931Z,6.40
2018-04-13T17:50:19.357Z,71.77
2018-04-13T17:52:48.682Z,8.33
2018-04-13T17:55:18.040Z,5.10
2018-04-13T17:57:47.436Z,8.33
2018-04-13T18:00:16.859Z,7.70
2018-04-13T18:02:46.222Z,7.10
2018-04-13T18:05:15.587Z,5.87
2018-04-13T18:07:44.939Z,5.10
2018-04-13T18:10:14.324Z,4.23
2018-04-13T18:12:43.759Z,5.87
2018-04-13T18:15:13.208Z,5.70
2018-04-13T18:17:42.617Z,8.20
2018-04-13T18:20:11.984Z,6.00
2018-04-13T18:22:41.360Z,7.97
2018-04-13T18:25:10.786Z,9.00
2018-04-13T18:27:40.391Z,7.73
2018-04-13T18:30:09.757Z,7.93
2018-04-13T18:32:39.115Z,8.00
2018-04-13T18:35:08.626Z,7.00
2018-04-13T18:37:38.151Z,7.07
2018-04-13T18:40:07.652Z,6.90
2018-04-13T18:42:37.315Z,6.80
2018-04-13T18:45:07.000Z,6.90
2018-04-13T18:47:36.432Z,6.40
2018-04-13T18:50:05.899Z,5.17
2018-04-13T18:52:35.352Z,6.40
2018-04-13T18:55:04.752Z,6.97
2018-04-13T18:57:34.107Z,6.63
2018-04-13T19:00:03.472Z,8.40
2018-04-13T19:02:33.012Z,8.57
2018-04-13T19:05:02.433Z,10.27
2018-04-13T19:07:31.803Z,16.77
2018-04-13T19:10:01.193Z,9.80
2018-04-13T19:12:30.565Z,10.87
2018-04-13T19:14:59.918Z,8.77
2018-04-13T19:17:29.382Z,11.00
2018-04-13T19:19:58.765Z,9.30
2018-04-13T19:22:28.145Z,8.80
2018-04-13T19:24:57.524Z,7.17
2018-04-13T19:27:27.770Z,7.80
2018-04-13T19:29:57.475Z,8.07
2018-04-13T19:32:26.858Z,7.67
2018-04-13T19:34:56.274Z,7.27
2018-04-13T19:37:25.638Z,9.67
2018-04-13T19:39:55.055Z,8.87
2018-04-13T19:42:24.458Z,7.60
2018-04-13T19:44:53.863Z,7.27
2018-04-13T19:47:23.312Z,6.70
2018-04-13T19:49:52.700Z,7.03
2018-04-13T19:52:22.149Z,5.53
2018-04-13T19:54:51.531Z,5.57
2018-04-13T19:57:20.851Z,5.40
2018-04-13T19:59:50.238Z,15.27
2018-04-13T20:02:19.611Z,6.03
2018-04-13T20:04:48.949Z,5.83
2018-04-13T20:07:18.325Z,6.17
2018-04-13T20:09:47.814Z,5.83
2018-04-13T20:12:18.969Z,5.63
2018-04-13T20:14:48.338Z,7.00
2018-04-13T20:17:17.744Z,5.47
2018-04-13T20:19:47.098Z,6.23
2018-04-13T20:22:16.473Z,6.17
2018-04-13T20:24:45.820Z,6.27
2018-04-13T20:27:15.184Z,7.87
2018-04-13T20:29:44.581Z,7.97
2018-04-13T20:32:14.013Z,8.00
2018-04-13T20:34:43.476Z,7.67
2018-04-13T20:37:12.891Z,6.73
2018-04-13T20:39:42.277Z,6.90
2018-04-13T20:42:11.643Z,6.07
2018-04-13T20:44:41.003Z,6.00
2018-04-13T20:47:10.836Z,5.90
2018-04-13T20:49:40.202Z,7.60
2018-04-13T20:52:09.596Z,7.17
2018-04-13T20:54:38.940Z,6.00
2018-04-13T20:57:08.280Z,6.50
2018-04-13T20:59:37.642Z,6.30
2018-04-13T21:02:07.022Z,7.37
2018-04-13T21:04:36.386Z,8.07
2018-04-13T21:07:05.752Z,6.47
2018-04-13T21:09:35.128Z,6.83
2018-04-13T21:12:04.473Z,7.00
2018-04-13T21:14:33.821Z,7.17
2018-04-13T21:17:03.197Z,6.93
2018-04-13T21:19:32.532Z,6.77
2018-04-13T21:22:01.901Z,7.40
2018-04-13T21:24:31.247Z,6.97
2018-04-13T21:27:00.635Z,7.60
2018-04-13T21:29:29.991Z,7.50
2018-04-13T21:31:59.544Z,7.97
2018-04-13T21:34:28.899Z,8.30
2018-04-13T21:36:58.254Z,9.07
2018-04-13T21:39:27.608Z,9.67
2018-04-13T21:41:56.971Z,8.17
2018-04-13T21:44:26.333Z,9.07
2018-04-13T21:46:55.672Z,8.70
2018-04-13T21:49:25.004Z,9.03
2018-04-13T21:51:54.378Z,9.23
2018-04-13T21:54:23.728Z,8.80
2018-04-13T21:56:53.257Z,8.80
2018-04-13T21:59:22.615Z,8.97
2018-04-13T22:01:51.975Z,9.33
2018-04-13T22:04:21.392Z,9.57
2018-04-13T22:06:50.762Z,9.20
2018-04-13T22:09:20.237Z,10.80
2018-04-13T22:11:49.606Z,8.60
2018-04-13T22:14:24.916Z,10.17
2018-04-13T22:16:54.281Z,9.47
2018-04-13T22:19:23.657Z,10.83
2018-04-13T22:21:53.064Z,9.90
2018-04-13T22:24:22.418Z,10.37
2018-04-13T22:26:52.366Z,10.33
2018-04-13T22:29:21.780Z,9.40
2018-04-13T22:31:51.207Z,9.43
2018-04-13T22:34:20.616Z,9.87
2018-04-13T22:36:49.952Z,8.87
2018-04-13T22:39:19.339Z,9.50
2018-04-13T22:41:48.707Z,9.60
2018-04-13T22:44:18.095Z,10.37
2018-04-13T22:46:47.491Z,11.03
2018-04-13T22:49:16.897Z,8.10
2018-04-13T22:51:46.240Z,8.23
2018-04-13T22:54:15.606Z,8.60
2018-04-13T22:56:45.068Z,8.50
2018-04-13T22:59:14.425Z,8.67
2018-04-13T23:01:43.881Z,9.60
2018-04-13T23:04:13.240Z,9.70
2018-04-13T23:06:42.654Z,9.30
2018-04-13T23:09:12.043Z,9.97
2018-04-13T23:11:41.427Z,10.27
2018-04-13T23:14:10.849Z,9.50
2018-04-13T23:16:40.356Z,8.87
2018-04-13T23:19:09.723Z,9.50
2018-04-13T23:21:39.097Z,10.83
2018-04-13T23:24:08.495Z,11.83
2018-04-13T23:26:37.872Z,9.77
2018-04-13T23:29:07.232Z,12.47
2018-04-13T23:31:36.662Z,10.37
2018-04-13T23:34:06.056Z,10.60
2018-04-13T23:36:35.421Z,12.70
2018-04-13T23:39:05.694Z,13.03
2018-04-13T23:41:35.057Z,12.23
2018-04-13T23:44:04.439Z,13.17
2018-04-13T23:46:33.864Z,12.10
2018-04-13T23:49:03.320Z,12.63
2018-04-13T23:51:32.717Z,12.47
2018-04-13T23:54:02.151Z,11.87
2018-04-13T23:56:31.523Z,11.37
2018-04-13T23:59:00.886Z,10.70
